Stunt Ranch Reserve, Santa Monica Mtns, California Weather observations

Data are for 10 minute period ending at time listed.
 Day   Time   Solar   Ave.   Ave.  Ave.  Vector  Max.   Baro.   Total    
  of    of     Rad.   Air    Rel.  Wind   Wind   Wind  Press.  Precip.   
Year   Day            Temp.  Hum.  Speed  Dir.   Gust                    
2017   (PST)  Kw/m2    F      %     mph   deg.    mph    mb.     in.     
-------------------------------------------------------------------------
 200   11:10   0.89   91.5    36    3.9   285     9.4   970.2    0.00 
 200   11:20   0.90   92.1    34    3.9   296     8.1   969.9    0.00 
 200   11:30   0.90   92.5    34    4.0   285     8.7   969.9    0.00 
 200   11:40   0.90   93.4    32    4.3   284     9.3   970.2    0.00 
 200   11:50   0.91   93.9    32    4.3   284     8.3   969.9    0.00 
 200   12:00   0.91   93.6    33    4.6   286     9.0   969.9    0.00 
 200   12:10   0.91   93.3    33    4.0   292     7.3   969.9    0.00 
 200   12:20   0.91   92.8    33    4.7   300     8.5   969.9    0.00 
 200   12:30   0.90   93.9    32    3.9   288     8.8   969.5    0.00 
 200   12:40   0.90   94.1    32    4.1   287    10.5   969.5    0.00 
 200   12:50   0.90   94.4    33    4.5   286    10.8   969.5    0.00 
 200   13:00   0.78   93.9    34    4.6   283     9.9   969.5    0.00 
 200   13:10   0.86   93.2    34    4.1   284     8.7   969.5    0.00 
 200   13:20   0.87   93.0    34    4.9   279     9.5   969.2    0.00 
 200   13:30   0.86   93.7    34    4.5   283     9.5   969.2    0.00 
 200   13:40   0.84   94.0    33    3.9   284     9.3   969.2    0.00 
 200   13:50   0.82   94.4    33    4.3   279     8.6   969.2    0.00 
 200   14:00   0.80   93.7    35    4.4   280     8.4   969.2    0.00 
 200   14:10   0.78   92.8    36    4.3   285     9.0   968.8    0.00 
 200   14:20   0.76   91.9    37    5.1   284     9.8   968.8    0.00 
 200   14:30   0.74   92.0    35    3.9   288     8.6   968.8    0.00 
 200   14:40   0.72   92.0    34    4.1   289     9.0   968.8    0.00 
 200   14:50   0.69   90.7    34    3.2   300     7.2   968.5    0.00 
 200   15:00   0.67   91.3    33    4.0   287     7.7   968.5    0.00 
 200   15:10   0.65   92.8    30    3.1   294     7.2   968.5    0.00 
 200   15:20   0.65   93.0    28    3.0   320     7.5   968.5    0.00 
 200   15:30   0.64   93.4    26    3.9   314     8.6   968.2    0.00 
 200   15:40   0.61   92.7    25    3.9   306     7.3   968.2    0.00 
 200   15:50   0.57   91.8    26    3.5   308     9.2   967.8    0.00 
 200   16:00   0.56   91.7    26    3.9   320     7.1   967.8    0.00 
 200   16:10   0.49   90.6    29    3.4   314     8.3   967.8    0.00 
 200   16:20   0.48   89.8    30    3.4   315     7.5   967.8    0.00 
 200   16:30   0.44   89.9    30    3.2   329     7.8   967.8    0.00 
 200   16:40   0.41   89.0    30    3.1   322     6.7   967.8    0.00 
 200   16:50   0.37   88.1    28    3.3   304     7.9   967.8    0.00 
 200   17:00   0.33   88.3    24    2.2   324     5.4   967.8    0.00 
 200   17:10   0.30   87.9    23    1.7   307     6.7   967.8    0.00 
 200   17:20   0.26   88.3    23    2.0   308     6.4   967.8    0.00 
 200   17:30   0.23   87.6    23    2.3   312     5.8   967.8    0.00 
 200   17:40   0.20   86.1    24    1.9   317     4.7   967.8    0.00 
 200   17:50   0.17   84.1    26    2.5   308     4.9   967.8    0.00 
 200   18:00   0.13   82.6    27    2.1   315     4.7   967.8    0.00 
 200   18:10   0.05   82.0    27    2.1   300     6.3   967.8    0.00 
 200   18:20   0.04   81.1    27    1.3   299     4.8   967.5    0.00 
 200   18:30   0.03   80.3    29    2.0   287     4.9   967.5    0.00 
 200   18:40   0.03   79.5    32    1.9   278     4.3   967.5    0.00 
 200   18:50   0.02   78.7    34    0.8   287     2.7   967.8    0.00 
 200   19:00   0.01   77.7    36    0.0   213     0.4   967.8    0.00 
 200   19:10   0.01   76.8    37    0.3   161     1.7   967.8    0.00 
 200   19:20   0.00   75.9    37    1.1   163     2.0   967.8    0.00 
 200   19:30   0.00   75.5    37    0.7   139     1.9   968.2    0.00 
 200   19:40   0.00   75.2    37    1.4   258     2.4   968.2    0.00 
 200   19:50   0.00   74.6    41    0.4   277     1.5   968.2    0.00 
 200   20:00   0.00   74.2    42    0.3   233     1.1   968.5    0.00 
 200   20:10   0.00   73.8    46    0.6   229     1.7   968.5    0.00 
 200   20:20   0.00   73.1    51    0.7   258     1.8   968.5    0.00 
 200   20:30   0.00   73.0    53    0.2   263     0.8   968.8    0.00 
 200   20:40   0.00   72.6    53    0.6   147     1.8   968.8    0.00 
 200   20:50   0.00   72.1    55    0.3   144     1.3   969.2    0.00 
 200   21:00   0.00   71.9    56    0.0   145     0.1   969.2    0.00 
 200   21:10   0.00   71.8    56    0.0   148     0.5   969.2    0.00 
 200   21:20   0.00   71.5    56    0.0     0     0.0   969.2    0.00 
 200   21:30   0.00   71.3    56    0.6   270     1.4   969.2    0.00 
 200   21:40   0.00   71.0    56    1.3   279     2.1   969.2    0.00 
 200   21:50   0.00   70.8    54    0.1   173     0.9   969.2    0.00 
 200   22:00   0.00   70.6    53    0.2   131     0.9   969.2    0.00 
 200   22:10   0.00   70.2    54    0.9   275     2.6   969.2    0.00 
 200   22:20   0.00   69.8    55    1.4   259     2.1   969.2    0.00 
 200   22:30   0.00   69.7    55    1.0   232     1.9   969.5    0.00 
 200   22:40   0.00   69.7    50    1.4   187     2.5   969.2    0.00 
 200   22:50   0.00   69.3    49    0.9   100     1.8   969.2    0.00 
 200   23:00   0.00   69.4    48    0.8   220     2.2   969.2    0.00 
 200   23:10   0.00   69.0    49    0.8   262     1.5   969.2    0.00 
 200   23:20   0.00   68.8    46    0.3   122     1.7   969.2    0.00 
 200   23:30   0.00   68.8    48    0.5   286     1.9   969.2    0.00 
 200   23:40   0.00   68.4    50    0.8   290     2.0   969.2    0.00 
 200   23:50   0.00   68.1    50    2.5   267     3.3   969.2    0.00 
 201    0:00   0.00   67.8    47    2.0   272     3.7   969.2    0.00 
 201    0:10   0.00   67.6    48    2.6   260     4.3   969.2    0.00 
 201    0:20   0.00   67.2    46    1.8   275     4.5   969.2    0.00 
 201    0:30   0.00   67.0    46    1.1   261     2.0   969.2    0.00 
 201    0:40   0.00   66.8    47    1.7   269     3.1   969.2    0.00 
 201    0:50   0.00   66.8    46    1.0   212     2.6   969.2    0.00 
 201    1:00   0.00   66.9    45    1.2   133     2.9   969.2    0.00 
 201    1:10   0.00   67.4    45    1.4   134     2.7   969.2    0.00 
 201    1:20   0.00   67.3    46    1.3   146     2.9   969.2    0.00 
 201    1:30   0.00   66.4    47    1.2   217     2.4   969.2    0.00 
 201    1:40   0.00   66.5    49    0.6   330     1.8   969.2    0.00 
 201    1:50   0.00   66.4    48    0.8   238     1.5   969.2    0.00 
 201    2:00   0.00   66.0    48    0.3   292     1.4   969.2    0.00 
 201    2:10   0.00   66.0    51    0.8   178     2.3   969.2    0.00 
 201    2:20   0.00   65.8    48    1.9   144     3.9   969.2    0.00 
 201    2:30   0.00   66.1    48    1.8   125     3.1   969.2    0.00 
 201    2:40   0.00   66.2    48    0.5   114     2.0   969.2    0.00 
 201    2:50   0.00   65.9    52    0.1   184     0.7   969.2    0.00 
 201    3:00   0.00   65.4    53    0.9   139     2.3   969.2    0.00 
 201    3:10   0.00   64.8    55    2.1   130     3.7   969.2    0.00 
 201    3:20   0.00   65.0    54    2.0   132     3.2   969.2    0.00 
 201    3:30   0.00   64.7    54    1.5   177     2.7   969.2    0.00 
 201    3:40   0.00   64.3    59    2.3   261     3.2   969.2    0.00 
 201    3:50   0.00   64.2    59    0.6   264     1.5   969.2    0.00 
 201    4:00   0.00   63.6    64    1.8   296     3.1   969.5    0.00 
 201    4:10   0.00   63.2    66    0.1   256     0.7   969.5    0.00 
 201    4:20   0.00   62.6    68    0.9   265     1.4   969.5    0.00 
 201    4:30   0.00   62.6    71    0.5   273     1.5   969.5    0.00 
 201    4:40   0.00   63.0    74    0.0     0     0.0   969.5    0.00 
 201    4:50   0.00   62.5    76    0.2   250     1.4   969.9    0.00 
 201    5:00   0.00   62.0    77    0.7    47     1.3   969.9    0.00 
 201    5:10   0.01   62.1    77    0.0     0     0.0   969.9    0.00 
 201    5:20   0.01   62.4    77    0.0   184     1.0   969.9    0.00 
 201    5:30   0.01   62.7    78    0.7   239     1.8   970.2    0.00 
 201    5:40   0.02   62.6    80    2.2   264     3.9   970.2    0.00 
 201    5:50   0.03   62.7    78    1.1    82     2.4   970.2    0.00 
 201    6:00   0.11   64.3    75    0.2   160     1.0   970.2    0.00 
 201    6:10   0.14   68.5    65    1.6   295     2.4   970.2    0.00 
 201    6:20   0.17   70.6    62    0.9   312     1.8   970.2    0.00 
 201    6:30   0.21   70.1    63    1.4   291     2.4   970.5    0.00 
 201    6:40   0.23   72.0    58    1.4   292     2.3   970.2    0.00 
 201    6:50   0.27   73.3    54    1.2   296     1.8   970.2    0.00 
 201    7:00   0.31   74.6    51    1.7   295     2.6   970.2    0.00 
 201    7:10   0.34   75.4    51    1.6   291     3.3   970.2    0.00 
 201    7:20   0.38   73.8    54    1.1   327     2.9   970.2    0.00 
 201    7:30   0.41   74.2    55    2.3   298     3.7   970.2    0.00 
 201    7:40   0.44   75.7    53    2.3   291     5.0   970.2    0.00 
 201    7:50   0.47   76.8    52    2.4   287     5.1   969.9    0.00 
 201    8:00   0.51   76.6    52    2.8   298     6.2   969.9    0.00 
 201    8:10   0.54   77.8    50    3.6   284     5.5   969.9    0.00 
 201    8:20   0.57   80.0    47    3.8   284     6.9   970.2    0.00 
 201    8:30   0.60   80.5    46    4.3   284     7.2   970.2    0.00 
 201    8:40   0.63   80.5    47    5.1   282     8.8   970.2    0.00 
 201    8:50   0.65   81.8    46    3.9   289     7.0   970.2    0.00 
 201    9:00   0.68   82.5    46    4.4   286     7.4   970.5    0.00 
 201    9:10   0.71   81.3    48    4.3   276     6.9   970.5    0.00 
 201    9:20   0.73   83.4    45    4.4   283     8.8   970.5    0.00 
 201    9:30   0.76   84.1    43    2.9   289     6.5   970.5    0.00 
 201    9:40   0.78   86.2    41    3.7   285     8.6   970.5    0.00 
 201    9:50   0.80   86.2    42    3.0   302     8.0   970.9    0.00 
 201   10:00   0.82   87.1    41    3.3   294     8.3   970.9    0.00 
 201   10:10   0.84   87.7    40    3.2   292     6.2   970.9    0.00 
 201   10:20   0.85   87.4    41    3.8   290     8.8   970.9    0.00 
 201   10:30   0.87   87.4    41    3.3   293     6.9   970.9    0.00 
 201   10:40   0.89   88.4    39    3.9   281     9.4   970.9    0.00 
 201   10:50   0.90   88.3    39    3.9   294     8.8   970.9    0.00 
 201   11:00   0.91   89.2    39    5.1   281     8.8   970.9    0.00 

Return to Stunt Ranch Reserve graphs page.


Western Regional Climate Center,wrcc@dri.edu